sensor_id;sensor_type;location;lat;lon;timestamp;P1;durP1;ratioP1;P2;durP2;ratioP2
41061;SDS011;26812;42.662;23.352;2022-12-18T00:02:15;5.60;;;4.55;;
41061;SDS011;26812;42.662;23.352;2022-12-18T00:04:41;4.93;;;4.45;;
41061;SDS011;26812;42.662;23.352;2022-12-18T00:07:06;7.05;;;4.90;;
41061;SDS011;26812;42.662;23.352;2022-12-18T00:09:31;5.68;;;4.70;;
41061;SDS011;26812;42.662;23.352;2022-12-18T00:11:57;6.45;;;4.90;;
41061;SDS011;26812;42.662;23.352;2022-12-18T00:14:22;6.47;;;4.65;;
41061;SDS011;26812;42.662;23.352;2022-12-18T00:16:48;5.20;;;4.20;;
41061;SDS011;26812;42.662;23.352;2022-12-18T00:19:13;6.10;;;4.82;;
41061;SDS011;26812;42.662;23.352;2022-12-18T00:21:40;6.53;;;5.28;;
41061;SDS011;26812;42.662;23.352;2022-12-18T00:24:07;6.80;;;5.15;;
41061;SDS011;26812;42.662;23.352;2022-12-18T00:26:33;5.97;;;5.20;;
41061;SDS011;26812;42.662;23.352;2022-12-18T00:29:02;7.82;;;5.03;;
41061;SDS011;26812;42.662;23.352;2022-12-18T00:31:30;7.18;;;5.25;;
41061;SDS011;26812;42.662;23.352;2022-12-18T00:33:56;7.95;;;5.53;;
41061;SDS011;26812;42.662;23.352;2022-12-18T00:36:23;8.23;;;4.80;;
41061;SDS011;26812;42.662;23.352;2022-12-18T00:38:52;6.75;;;5.15;;
41061;SDS011;26812;42.662;23.352;2022-12-18T00:41:18;8.80;;;5.32;;
41061;SDS011;26812;42.662;23.352;2022-12-18T00:44:03;6.57;;;5.47;;
41061;SDS011;26812;42.662;23.352;2022-12-18T00:46:29;7.32;;;5.80;;
41061;SDS011;26812;42.662;23.352;2022-12-18T00:48:55;7.22;;;5.50;;
41061;SDS011;26812;42.662;23.352;2022-12-18T00:51:20;6.28;;;4.63;;
41061;SDS011;26812;42.662;23.352;2022-12-18T00:53:46;7.60;;;5.03;;
41061;SDS011;26812;42.662;23.352;2022-12-18T00:56:11;8.45;;;6.10;;
41061;SDS011;26812;42.662;23.352;2022-12-18T00:58:37;8.88;;;6.53;;
41061;SDS011;26812;42.662;23.352;2022-12-18T01:01:05;8.00;;;5.70;;
41061;SDS011;26812;42.662;23.352;2022-12-18T01:03:31;10.00;;;5.90;;
41061;SDS011;26812;42.662;23.352;2022-12-18T01:05:57;7.47;;;5.63;;
41061;SDS011;26812;42.662;23.352;2022-12-18T01:08:22;10.02;;;6.35;;
41061;SDS011;26812;42.662;23.352;2022-12-18T01:10:48;9.15;;;6.25;;
41061;SDS011;26812;42.662;23.352;2022-12-18T01:13:13;9.25;;;5.97;;
41061;SDS011;26812;42.662;23.352;2022-12-18T01:15:39;8.38;;;6.50;;
41061;SDS011;26812;42.662;23.352;2022-12-18T01:18:05;9.20;;;6.40;;
41061;SDS011;26812;42.662;23.352;2022-12-18T01:20:30;7.82;;;5.97;;
41061;SDS011;26812;42.662;23.352;2022-12-18T01:22:56;8.75;;;5.88;;
41061;SDS011;26812;42.662;23.352;2022-12-18T01:25:22;6.38;;;5.22;;
41061;SDS011;26812;42.662;23.352;2022-12-18T01:27:47;7.85;;;5.55;;
41061;SDS011;26812;42.662;23.352;2022-12-18T01:30:13;7.88;;;5.90;;
41061;SDS011;26812;42.662;23.352;2022-12-18T01:32:38;10.88;;;6.00;;
41061;SDS011;26812;42.662;23.352;2022-12-18T01:35:04;6.45;;;5.45;;
41061;SDS011;26812;42.662;23.352;2022-12-18T01:37:30;12.13;;;6.38;;
41061;SDS011;26812;42.662;23.352;2022-12-18T01:39:56;7.25;;;5.93;;
41061;SDS011;26812;42.662;23.352;2022-12-18T01:42:21;7.10;;;5.72;;
41061;SDS011;26812;42.662;23.352;2022-12-18T01:50:40;10.23;;;7.35;;
41061;SDS011;26812;42.662;23.352;2022-12-18T01:55:37;8.13;;;6.07;;
41061;SDS011;26812;42.662;23.352;2022-12-18T01:58:17;9.73;;;6.90;;
41061;SDS011;26812;42.662;23.352;2022-12-18T02:00:43;9.35;;;6.20;;
41061;SDS011;26812;42.662;23.352;2022-12-18T02:03:08;10.05;;;6.70;;
41061;SDS011;26812;42.662;23.352;2022-12-18T02:16:32;10.07;;;6.10;;
41061;SDS011;26812;42.662;23.352;2022-12-18T02:19:21;9.00;;;6.32;;
41061;SDS011;26812;42.662;23.352;2022-12-18T02:22:02;6.85;;;5.38;;
41061;SDS011;26812;42.662;23.352;2022-12-18T02:24:54;8.07;;;5.95;;
41061;SDS011;26812;42.662;23.352;2022-12-18T02:27:29;8.45;;;6.35;;
41061;SDS011;26812;42.662;23.352;2022-12-18T02:29:57;8.48;;;6.50;;
41061;SDS011;26812;42.662;23.352;2022-12-18T02:32:30;10.95;;;6.38;;
41061;SDS011;26812;42.662;23.352;2022-12-18T02:35:01;7.65;;;6.30;;
41061;SDS011;26812;42.662;23.352;2022-12-18T02:37:29;9.32;;;6.18;;
41061;SDS011;26812;42.662;23.352;2022-12-18T02:39:57;7.40;;;5.65;;
41061;SDS011;26812;42.662;23.352;2022-12-18T02:42:24;9.80;;;6.07;;
41061;SDS011;26812;42.662;23.352;2022-12-18T02:44:52;6.53;;;5.82;;
41061;SDS011;26812;42.662;23.352;2022-12-18T02:47:18;6.82;;;5.03;;
41061;SDS011;26812;42.662;23.352;2022-12-18T02:57:54;7.80;;;5.68;;
41061;SDS011;26812;42.662;23.352;2022-12-18T03:00:35;8.82;;;6.43;;
41061;SDS011;26812;42.662;23.352;2022-12-18T03:05:51;6.53;;;5.72;;
41061;SDS011;26812;42.662;23.352;2022-12-18T03:08:21;8.65;;;6.13;;
41061;SDS011;26812;42.662;23.352;2022-12-18T03:11:12;8.30;;;5.70;;
41061;SDS011;26812;42.662;23.352;2022-12-18T03:13:47;8.90;;;6.82;;
41061;SDS011;26812;42.662;23.352;2022-12-18T03:16:18;8.75;;;6.75;;
41061;SDS011;26812;42.662;23.352;2022-12-18T03:21:37;8.80;;;6.18;;
41061;SDS011;26812;42.662;23.352;2022-12-18T03:24:07;8.30;;;6.13;;
41061;SDS011;26812;42.662;23.352;2022-12-18T03:26:35;7.80;;;5.38;;
41061;SDS011;26812;42.662;23.352;2022-12-18T03:29:10;6.40;;;4.90;;
41061;SDS011;26812;42.662;23.352;2022-12-18T03:31:42;10.70;;;6.95;;
41061;SDS011;26812;42.662;23.352;2022-12-18T03:34:24;7.07;;;5.57;;
41061;SDS011;26812;42.662;23.352;2022-12-18T03:36:54;8.07;;;5.85;;
41061;SDS011;26812;42.662;23.352;2022-12-18T03:39:20;9.52;;;6.57;;
41061;SDS011;26812;42.662;23.352;2022-12-18T03:41:56;9.48;;;5.97;;
41061;SDS011;26812;42.662;23.352;2022-12-18T03:44:32;10.30;;;6.07;;
41061;SDS011;26812;42.662;23.352;2022-12-18T03:53:00;10.93;;;6.15;;
41061;SDS011;26812;42.662;23.352;2022-12-18T03:55:43;7.85;;;6.20;;
41061;SDS011;26812;42.662;23.352;2022-12-18T03:58:11;10.05;;;6.50;;
41061;SDS011;26812;42.662;23.352;2022-12-18T04:00:41;9.07;;;6.40;;
41061;SDS011;26812;42.662;23.352;2022-12-18T04:03:08;10.50;;;6.10;;
41061;SDS011;26812;42.662;23.352;2022-12-18T04:05:35;9.63;;;6.28;;
41061;SDS011;26812;42.662;23.352;2022-12-18T04:08:02;9.10;;;6.45;;
41061;SDS011;26812;42.662;23.352;2022-12-18T04:10:28;9.30;;;5.70;;
41061;SDS011;26812;42.662;23.352;2022-12-18T04:12:57;11.38;;;6.55;;
41061;SDS011;26812;42.662;23.352;2022-12-18T04:15:23;8.88;;;6.07;;
41061;SDS011;26812;42.662;23.352;2022-12-18T04:17:49;6.20;;;5.20;;
41061;SDS011;26812;42.662;23.352;2022-12-18T04:20:15;8.55;;;6.65;;
41061;SDS011;26812;42.662;23.352;2022-12-18T04:22:48;9.02;;;5.93;;
41061;SDS011;26812;42.662;23.352;2022-12-18T04:25:14;8.07;;;6.50;;
41061;SDS011;26812;42.662;23.352;2022-12-18T04:27:39;8.30;;;5.57;;
41061;SDS011;26812;42.662;23.352;2022-12-18T04:30:05;7.15;;;5.65;;
41061;SDS011;26812;42.662;23.352;2022-12-18T04:32:32;9.48;;;6.55;;
41061;SDS011;26812;42.662;23.352;2022-12-18T04:34:58;8.32;;;5.85;;
41061;SDS011;26812;42.662;23.352;2022-12-18T04:37:23;8.85;;;6.78;;
41061;SDS011;26812;42.662;23.352;2022-12-18T04:39:49;9.35;;;6.25;;
41061;SDS011;26812;42.662;23.352;2022-12-18T04:42:14;11.82;;;6.97;;
41061;SDS011;26812;42.662;23.352;2022-12-18T04:44:40;10.30;;;6.60;;
41061;SDS011;26812;42.662;23.352;2022-12-18T04:47:05;11.48;;;6.18;;
41061;SDS011;26812;42.662;23.352;2022-12-18T04:49:32;11.63;;;7.38;;
41061;SDS011;26812;42.662;23.352;2022-12-18T04:51:57;9.77;;;7.05;;
41061;SDS011;26812;42.662;23.352;2022-12-18T04:54:23;10.63;;;6.82;;
41061;SDS011;26812;42.662;23.352;2022-12-18T04:56:48;11.07;;;7.38;;
41061;SDS011;26812;42.662;23.352;2022-12-18T04:59:14;10.70;;;7.78;;
41061;SDS011;26812;42.662;23.352;2022-12-18T05:01:39;12.88;;;8.40;;
41061;SDS011;26812;42.662;23.352;2022-12-18T05:04:05;14.85;;;8.65;;
41061;SDS011;26812;42.662;23.352;2022-12-18T05:06:31;10.50;;;8.18;;
41061;SDS011;26812;42.662;23.352;2022-12-18T05:08:56;14.05;;;8.30;;
41061;SDS011;26812;42.662;23.352;2022-12-18T05:11:22;11.90;;;8.95;;
41061;SDS011;26812;42.662;23.352;2022-12-18T05:13:47;13.23;;;8.30;;
41061;SDS011;26812;42.662;23.352;2022-12-18T05:16:13;11.10;;;8.05;;
41061;SDS011;26812;42.662;23.352;2022-12-18T05:18:39;13.38;;;7.50;;
41061;SDS011;26812;42.662;23.352;2022-12-18T05:21:05;12.30;;;8.57;;
41061;SDS011;26812;42.662;23.352;2022-12-18T05:23:31;12.95;;;7.95;;
41061;SDS011;26812;42.662;23.352;2022-12-18T05:25:57;11.40;;;7.68;;
41061;SDS011;26812;42.662;23.352;2022-12-18T05:28:29;11.27;;;7.93;;
41061;SDS011;26812;42.662;23.352;2022-12-18T05:30:56;12.70;;;8.57;;
41061;SDS011;26812;42.662;23.352;2022-12-18T05:33:24;10.88;;;7.90;;
41061;SDS011;26812;42.662;23.352;2022-12-18T05:35:51;12.50;;;8.45;;
41061;SDS011;26812;42.662;23.352;2022-12-18T05:38:21;13.10;;;8.77;;
41061;SDS011;26812;42.662;23.352;2022-12-18T05:40:48;11.63;;;7.72;;
41061;SDS011;26812;42.662;23.352;2022-12-18T05:43:14;11.55;;;8.05;;
41061;SDS011;26812;42.662;23.352;2022-12-18T05:45:40;13.40;;;8.43;;
41061;SDS011;26812;42.662;23.352;2022-12-18T05:48:06;11.07;;;8.57;;
41061;SDS011;26812;42.662;23.352;2022-12-18T05:50:36;14.13;;;7.95;;
41061;SDS011;26812;42.662;23.352;2022-12-18T05:53:03;10.25;;;7.65;;
41061;SDS011;26812;42.662;23.352;2022-12-18T05:55:37;13.32;;;8.70;;
41061;SDS011;26812;42.662;23.352;2022-12-18T05:58:04;12.52;;;8.68;;
41061;SDS011;26812;42.662;23.352;2022-12-18T06:00:31;16.05;;;8.57;;
41061;SDS011;26812;42.662;23.352;2022-12-18T06:02:57;15.15;;;8.98;;
41061;SDS011;26812;42.662;23.352;2022-12-18T06:05:24;13.75;;;9.57;;
41061;SDS011;26812;42.662;23.352;2022-12-18T06:07:49;15.30;;;9.27;;
41061;SDS011;26812;42.662;23.352;2022-12-18T06:10:15;16.75;;;8.48;;
41061;SDS011;26812;42.662;23.352;2022-12-18T06:12:40;14.75;;;9.65;;
41061;SDS011;26812;42.662;23.352;2022-12-18T06:15:06;15.52;;;9.13;;
41061;SDS011;26812;42.662;23.352;2022-12-18T06:17:32;12.65;;;9.25;;
41061;SDS011;26812;42.662;23.352;2022-12-18T06:19:58;15.50;;;10.40;;
41061;SDS011;26812;42.662;23.352;2022-12-18T06:22:24;15.07;;;8.75;;
41061;SDS011;26812;42.662;23.352;2022-12-18T06:24:49;15.52;;;10.07;;
41061;SDS011;26812;42.662;23.352;2022-12-18T06:27:15;17.48;;;10.00;;
41061;SDS011;26812;42.662;23.352;2022-12-18T06:29:41;16.17;;;9.93;;
41061;SDS011;26812;42.662;23.352;2022-12-18T06:32:06;14.68;;;9.93;;
41061;SDS011;26812;42.662;23.352;2022-12-18T06:34:32;12.50;;;7.80;;
41061;SDS011;26812;42.662;23.352;2022-12-18T06:36:58;14.00;;;8.45;;
41061;SDS011;26812;42.662;23.352;2022-12-18T06:39:24;15.40;;;9.43;;
41061;SDS011;26812;42.662;23.352;2022-12-18T06:41:49;16.98;;;10.48;;
41061;SDS011;26812;42.662;23.352;2022-12-18T06:44:15;16.15;;;10.18;;
41061;SDS011;26812;42.662;23.352;2022-12-18T06:46:40;18.65;;;10.20;;
41061;SDS011;26812;42.662;23.352;2022-12-18T06:49:06;13.57;;;10.07;;
41061;SDS011;26812;42.662;23.352;2022-12-18T06:51:34;14.20;;;8.90;;
41061;SDS011;26812;42.662;23.352;2022-12-18T06:53:59;19.60;;;11.40;;
41061;SDS011;26812;42.662;23.352;2022-12-18T06:56:25;14.65;;;9.32;;
41061;SDS011;26812;42.662;23.352;2022-12-18T06:58:50;13.23;;;9.45;;
41061;SDS011;26812;42.662;23.352;2022-12-18T07:01:16;13.15;;;8.65;;
41061;SDS011;26812;42.662;23.352;2022-12-18T07:03:41;11.90;;;8.30;;
41061;SDS011;26812;42.662;23.352;2022-12-18T07:06:14;15.43;;;9.27;;
41061;SDS011;26812;42.662;23.352;2022-12-18T07:08:44;15.63;;;8.35;;
41061;SDS011;26812;42.662;23.352;2022-12-18T07:11:09;15.45;;;10.00;;
41061;SDS011;26812;42.662;23.352;2022-12-18T07:13:35;14.40;;;8.60;;
41061;SDS011;26812;42.662;23.352;2022-12-18T07:16:11;18.02;;;10.35;;
41061;SDS011;26812;42.662;23.352;2022-12-18T07:18:38;12.10;;;8.63;;
41061;SDS011;26812;42.662;23.352;2022-12-18T07:21:08;17.80;;;9.95;;
41061;SDS011;26812;42.662;23.352;2022-12-18T07:23:35;15.82;;;9.35;;
41061;SDS011;26812;42.662;23.352;2022-12-18T07:26:04;18.52;;;10.77;;
41061;SDS011;26812;42.662;23.352;2022-12-18T07:28:31;13.77;;;8.52;;
41061;SDS011;26812;42.662;23.352;2022-12-18T07:30:58;16.98;;;9.90;;
41061;SDS011;26812;42.662;23.352;2022-12-18T07:33:27;13.82;;;8.82;;
41061;SDS011;26812;42.662;23.352;2022-12-18T07:35:53;14.07;;;9.43;;
41061;SDS011;26812;42.662;23.352;2022-12-18T07:38:18;17.38;;;10.13;;
41061;SDS011;26812;42.662;23.352;2022-12-18T07:40:43;20.08;;;11.40;;
41061;SDS011;26812;42.662;23.352;2022-12-18T07:43:09;16.17;;;10.95;;
41061;SDS011;26812;42.662;23.352;2022-12-18T07:45:34;17.02;;;10.75;;
41061;SDS011;26812;42.662;23.352;2022-12-18T07:48:00;14.52;;;9.27;;
41061;SDS011;26812;42.662;23.352;2022-12-18T07:50:25;16.83;;;11.10;;
41061;SDS011;26812;42.662;23.352;2022-12-18T07:52:50;16.52;;;10.13;;
41061;SDS011;26812;42.662;23.352;2022-12-18T07:55:16;16.60;;;11.07;;
41061;SDS011;26812;42.662;23.352;2022-12-18T07:57:41;19.38;;;11.90;;
41061;SDS011;26812;42.662;23.352;2022-12-18T08:00:07;19.05;;;11.10;;
41061;SDS011;26812;42.662;23.352;2022-12-18T08:02:33;19.17;;;12.82;;
41061;SDS011;26812;42.662;23.352;2022-12-18T08:04:58;19.65;;;11.02;;
41061;SDS011;26812;42.662;23.352;2022-12-18T08:07:24;19.92;;;11.82;;
41061;SDS011;26812;42.662;23.352;2022-12-18T08:09:49;18.55;;;12.00;;
41061;SDS011;26812;42.662;23.352;2022-12-18T08:12:15;21.30;;;12.73;;
41061;SDS011;26812;42.662;23.352;2022-12-18T08:14:40;18.90;;;11.60;;
41061;SDS011;26812;42.662;23.352;2022-12-18T08:17:05;18.40;;;11.68;;
41061;SDS011;26812;42.662;23.352;2022-12-18T08:19:31;18.67;;;12.27;;
41061;SDS011;26812;42.662;23.352;2022-12-18T08:21:56;23.80;;;13.40;;
41061;SDS011;26812;42.662;23.352;2022-12-18T08:24:22;19.48;;;11.88;;
41061;SDS011;26812;42.662;23.352;2022-12-18T08:26:47;22.67;;;12.63;;
41061;SDS011;26812;42.662;23.352;2022-12-18T08:29:12;22.35;;;12.30;;
41061;SDS011;26812;42.662;23.352;2022-12-18T08:31:38;18.63;;;12.30;;
41061;SDS011;26812;42.662;23.352;2022-12-18T08:34:03;23.17;;;13.70;;
41061;SDS011;26812;42.662;23.352;2022-12-18T08:36:29;19.88;;;13.68;;
41061;SDS011;26812;42.662;23.352;2022-12-18T08:38:54;21.27;;;12.63;;
41061;SDS011;26812;42.662;23.352;2022-12-18T08:41:20;20.63;;;13.20;;
41061;SDS011;26812;42.662;23.352;2022-12-18T08:43:45;22.75;;;12.07;;
41061;SDS011;26812;42.662;23.352;2022-12-18T08:46:40;18.63;;;11.45;;
41061;SDS011;26812;42.662;23.352;2022-12-18T08:49:06;19.23;;;12.13;;
41061;SDS011;26812;42.662;23.352;2022-12-18T08:51:33;20.88;;;11.70;;
41061;SDS011;26812;42.662;23.352;2022-12-18T08:53:59;18.42;;;10.13;;
41061;SDS011;26812;42.662;23.352;2022-12-18T08:56:24;21.23;;;12.32;;
41061;SDS011;26812;42.662;23.352;2022-12-18T08:58:53;18.85;;;11.48;;
41061;SDS011;26812;42.662;23.352;2022-12-18T09:01:20;21.17;;;11.65;;
41061;SDS011;26812;42.662;23.352;2022-12-18T09:03:47;17.88;;;11.15;;
41061;SDS011;26812;42.662;23.352;2022-12-18T09:06:14;20.48;;;10.45;;
41061;SDS011;26812;42.662;23.352;2022-12-18T09:08:41;17.30;;;10.82;;
41061;SDS011;26812;42.662;23.352;2022-12-18T09:14:05;17.52;;;10.60;;
41061;SDS011;26812;42.662;23.352;2022-12-18T09:16:30;19.77;;;11.25;;
41061;SDS011;26812;42.662;23.352;2022-12-18T09:18:57;19.92;;;11.95;;
41061;SDS011;26812;42.662;23.352;2022-12-18T09:21:27;20.13;;;12.00;;
41061;SDS011;26812;42.662;23.352;2022-12-18T09:23:55;20.33;;;12.00;;
41061;SDS011;26812;42.662;23.352;2022-12-18T09:26:21;19.40;;;12.18;;
41061;SDS011;26812;42.662;23.352;2022-12-18T09:29:01;17.63;;;11.25;;
41061;SDS011;26812;42.662;23.352;2022-12-18T09:31:28;20.95;;;11.48;;
41061;SDS011;26812;42.662;23.352;2022-12-18T09:33:54;17.92;;;11.60;;
41061;SDS011;26812;42.662;23.352;2022-12-18T09:36:21;20.05;;;11.70;;
41061;SDS011;26812;42.662;23.352;2022-12-18T09:38:46;15.52;;;10.63;;
41061;SDS011;26812;42.662;23.352;2022-12-18T09:41:55;19.73;;;11.15;;
41061;SDS011;26812;42.662;23.352;2022-12-18T09:49:58;17.67;;;10.10;;
41061;SDS011;26812;42.662;23.352;2022-12-18T09:52:36;19.63;;;10.48;;
41061;SDS011;26812;42.662;23.352;2022-12-18T09:57:36;20.63;;;12.75;;
41061;SDS011;26812;42.662;23.352;2022-12-18T10:02:44;18.52;;;10.48;;
41061;SDS011;26812;42.662;23.352;2022-12-18T10:05:16;20.50;;;11.13;;
41061;SDS011;26812;42.662;23.352;2022-12-18T10:08:00;20.23;;;11.35;;
41061;SDS011;26812;42.662;23.352;2022-12-18T10:13:22;19.40;;;10.87;;
41061;SDS011;26812;42.662;23.352;2022-12-18T10:16:09;15.13;;;9.88;;
41061;SDS011;26812;42.662;23.352;2022-12-18T10:18:55;14.07;;;10.00;;
41061;SDS011;26812;42.662;23.352;2022-12-18T10:21:30;15.85;;;9.85;;
41061;SDS011;26812;42.662;23.352;2022-12-18T10:29:55;16.17;;;11.02;;
41061;SDS011;26812;42.662;23.352;2022-12-18T10:32:23;16.92;;;10.57;;
41061;SDS011;26812;42.662;23.352;2022-12-18T10:34:51;17.48;;;9.63;;
41061;SDS011;26812;42.662;23.352;2022-12-18T10:37:20;18.42;;;10.63;;
41061;SDS011;26812;42.662;23.352;2022-12-18T10:40:04;19.33;;;11.60;;
41061;SDS011;26812;42.662;23.352;2022-12-18T10:42:33;18.30;;;11.25;;
41061;SDS011;26812;42.662;23.352;2022-12-18T10:45:03;16.27;;;10.95;;
41061;SDS011;26812;42.662;23.352;2022-12-18T10:47:34;18.50;;;10.57;;
41061;SDS011;26812;42.662;23.352;2022-12-18T10:50:00;16.08;;;9.88;;
41061;SDS011;26812;42.662;23.352;2022-12-18T10:52:26;17.80;;;10.10;;
41061;SDS011;26812;42.662;23.352;2022-12-18T10:54:53;15.80;;;9.52;;
41061;SDS011;26812;42.662;23.352;2022-12-18T10:59:55;15.25;;;9.93;;
41061;SDS011;26812;42.662;23.352;2022-12-18T11:02:55;16.02;;;11.43;;
41061;SDS011;26812;42.662;23.352;2022-12-18T11:05:47;19.98;;;10.82;;
41061;SDS011;26812;42.662;23.352;2022-12-18T11:08:07;16.33;;;10.70;;
41061;SDS011;26812;42.662;23.352;2022-12-18T11:10:47;19.10;;;11.55;;
41061;SDS011;26812;42.662;23.352;2022-12-18T11:13:23;17.15;;;10.10;;
41061;SDS011;26812;42.662;23.352;2022-12-18T11:15:50;15.85;;;10.20;;
41061;SDS011;26812;42.662;23.352;2022-12-18T11:18:30;18.52;;;9.95;;
41061;SDS011;26812;42.662;23.352;2022-12-18T11:20:59;20.38;;;10.95;;
41061;SDS011;26812;42.662;23.352;2022-12-18T11:23:32;18.55;;;9.43;;
41061;SDS011;26812;42.662;23.352;2022-12-18T11:26:01;15.48;;;10.32;;
41061;SDS011;26812;42.662;23.352;2022-12-18T11:33:59;13.80;;;8.85;;
41061;SDS011;26812;42.662;23.352;2022-12-18T11:42:10;17.30;;;8.95;;
41061;SDS011;26812;42.662;23.352;2022-12-18T11:47:42;14.90;;;9.38;;
41061;SDS011;26812;42.662;23.352;2022-12-18T11:50:24;16.08;;;9.35;;
41061;SDS011;26812;42.662;23.352;2022-12-18T11:52:54;17.00;;;10.40;;
41061;SDS011;26812;42.662;23.352;2022-12-18T11:55:24;17.50;;;10.23;;
41061;SDS011;26812;42.662;23.352;2022-12-18T12:00:32;19.50;;;10.05;;
41061;SDS011;26812;42.662;23.352;2022-12-18T12:03:26;14.82;;;9.93;;
41061;SDS011;26812;42.662;23.352;2022-12-18T12:20:20;15.25;;;8.73;;
41061;SDS011;26812;42.662;23.352;2022-12-18T12:25:28;18.67;;;10.57;;
41061;SDS011;26812;42.662;23.352;2022-12-18T12:31:02;16.35;;;11.43;;
41061;SDS011;26812;42.662;23.352;2022-12-18T12:36:41;17.73;;;11.05;;
41061;SDS011;26812;42.662;23.352;2022-12-18T12:39:14;14.90;;;9.27;;
41061;SDS011;26812;42.662;23.352;2022-12-18T12:41:46;18.23;;;9.45;;
41061;SDS011;26812;42.662;23.352;2022-12-18T12:44:32;17.15;;;9.80;;
41061;SDS011;26812;42.662;23.352;2022-12-18T12:47:07;17.65;;;10.07;;
41061;SDS011;26812;42.662;23.352;2022-12-18T12:49:44;15.63;;;10.40;;
41061;SDS011;26812;42.662;23.352;2022-12-18T12:52:14;16.40;;;9.23;;
41061;SDS011;26812;42.662;23.352;2022-12-18T12:54:42;18.45;;;10.35;;
41061;SDS011;26812;42.662;23.352;2022-12-18T13:02:30;18.52;;;9.77;;
41061;SDS011;26812;42.662;23.352;2022-12-18T13:05:09;16.23;;;10.45;;
41061;SDS011;26812;42.662;23.352;2022-12-18T13:07:41;20.77;;;11.05;;
41061;SDS011;26812;42.662;23.352;2022-12-18T13:13:09;19.27;;;10.48;;
41061;SDS011;26812;42.662;23.352;2022-12-18T13:20:38;20.10;;;10.65;;
41061;SDS011;26812;42.662;23.352;2022-12-18T13:36:51;21.58;;;10.98;;
41061;SDS011;26812;42.662;23.352;2022-12-18T13:41:44;18.85;;;11.52;;
41061;SDS011;26812;42.662;23.352;2022-12-18T13:46:46;19.25;;;12.18;;
41061;SDS011;26812;42.662;23.352;2022-12-18T13:51:42;18.15;;;11.38;;
41061;SDS011;26812;42.662;23.352;2022-12-18T13:57:05;17.75;;;11.65;;
41061;SDS011;26812;42.662;23.352;2022-12-18T13:59:54;21.00;;;11.75;;
41061;SDS011;26812;42.662;23.352;2022-12-18T14:02:22;22.88;;;12.05;;
41061;SDS011;26812;42.662;23.352;2022-12-18T14:04:49;19.30;;;11.35;;
41061;SDS011;26812;42.662;23.352;2022-12-18T14:07:23;18.23;;;10.88;;
41061;SDS011;26812;42.662;23.352;2022-12-18T14:09:51;18.75;;;11.95;;
41061;SDS011;26812;42.662;23.352;2022-12-18T14:12:25;18.30;;;11.23;;
41061;SDS011;26812;42.662;23.352;2022-12-18T14:20:39;17.45;;;10.80;;
41061;SDS011;26812;42.662;23.352;2022-12-18T14:25:56;16.17;;;10.32;;
41061;SDS011;26812;42.662;23.352;2022-12-18T14:28:21;18.05;;;11.65;;
41061;SDS011;26812;42.662;23.352;2022-12-18T14:30:47;19.88;;;11.07;;
41061;SDS011;26812;42.662;23.352;2022-12-18T14:33:14;15.82;;;9.93;;
41061;SDS011;26812;42.662;23.352;2022-12-18T14:38:36;17.63;;;9.10;;
41061;SDS011;26812;42.662;23.352;2022-12-18T14:41:04;15.52;;;9.10;;
41061;SDS011;26812;42.662;23.352;2022-12-18T14:43:32;16.00;;;9.32;;
41061;SDS011;26812;42.662;23.352;2022-12-18T14:46:25;19.25;;;10.02;;
41061;SDS011;26812;42.662;23.352;2022-12-18T14:51:57;13.60;;;9.52;;
41061;SDS011;26812;42.662;23.352;2022-12-18T14:54:27;15.85;;;9.32;;
41061;SDS011;26812;42.662;23.352;2022-12-18T14:56:59;17.90;;;9.57;;
41061;SDS011;26812;42.662;23.352;2022-12-18T14:59:28;15.52;;;9.13;;
41061;SDS011;26812;42.662;23.352;2022-12-18T15:04:36;15.32;;;10.00;;
41061;SDS011;26812;42.662;23.352;2022-12-18T15:09:37;15.35;;;8.93;;
41061;SDS011;26812;42.662;23.352;2022-12-18T15:12:05;14.30;;;8.80;;
41061;SDS011;26812;42.662;23.352;2022-12-18T15:14:44;14.63;;;9.45;;
41061;SDS011;26812;42.662;23.352;2022-12-18T15:17:17;18.27;;;9.65;;
41061;SDS011;26812;42.662;23.352;2022-12-18T15:19:45;17.38;;;9.23;;
41061;SDS011;26812;42.662;23.352;2022-12-18T15:22:24;15.23;;;9.40;;
41061;SDS011;26812;42.662;23.352;2022-12-18T15:24:50;16.67;;;10.02;;
41061;SDS011;26812;42.662;23.352;2022-12-18T15:27:32;16.83;;;10.10;;
41061;SDS011;26812;42.662;23.352;2022-12-18T15:32:37;14.95;;;9.48;;
41061;SDS011;26812;42.662;23.352;2022-12-18T15:37:36;17.33;;;10.55;;
41061;SDS011;26812;42.662;23.352;2022-12-18T15:40:03;18.17;;;8.80;;
41061;SDS011;26812;42.662;23.352;2022-12-18T15:42:31;16.50;;;9.32;;
41061;SDS011;26812;42.662;23.352;2022-12-18T15:45:15;16.25;;;9.48;;
41061;SDS011;26812;42.662;23.352;2022-12-18T15:47:40;17.48;;;9.63;;
41061;SDS011;26812;42.662;23.352;2022-12-18T15:50:09;13.90;;;9.43;;
41061;SDS011;26812;42.662;23.352;2022-12-18T15:52:44;18.30;;;10.30;;
41061;SDS011;26812;42.662;23.352;2022-12-18T15:55:15;17.17;;;10.57;;
41061;SDS011;26812;42.662;23.352;2022-12-18T15:58:02;15.65;;;10.20;;
41061;SDS011;26812;42.662;23.352;2022-12-18T16:00:28;17.77;;;10.68;;
41061;SDS011;26812;42.662;23.352;2022-12-18T16:02:54;17.85;;;10.43;;
41061;SDS011;26812;42.662;23.352;2022-12-18T16:05:20;20.10;;;10.60;;
41061;SDS011;26812;42.662;23.352;2022-12-18T16:07:46;15.80;;;10.00;;
41061;SDS011;26812;42.662;23.352;2022-12-18T16:10:12;17.33;;;10.45;;
41061;SDS011;26812;42.662;23.352;2022-12-18T16:12:38;16.50;;;10.68;;
41061;SDS011;26812;42.662;23.352;2022-12-18T16:15:04;18.85;;;10.98;;
41061;SDS011;26812;42.662;23.352;2022-12-18T16:17:30;18.38;;;10.13;;
41061;SDS011;26812;42.662;23.352;2022-12-18T16:19:56;17.95;;;11.20;;
41061;SDS011;26812;42.662;23.352;2022-12-18T16:22:25;19.05;;;11.57;;
41061;SDS011;26812;42.662;23.352;2022-12-18T16:24:53;17.85;;;11.18;;
41061;SDS011;26812;42.662;23.352;2022-12-18T16:27:19;18.63;;;10.98;;
41061;SDS011;26812;42.662;23.352;2022-12-18T16:29:46;15.23;;;8.95;;
41061;SDS011;26812;42.662;23.352;2022-12-18T16:32:18;15.32;;;10.63;;
41061;SDS011;26812;42.662;23.352;2022-12-18T16:34:45;18.70;;;10.75;;
41061;SDS011;26812;42.662;23.352;2022-12-18T16:37:11;16.90;;;9.73;;
41061;SDS011;26812;42.662;23.352;2022-12-18T16:39:38;17.08;;;9.90;;
41061;SDS011;26812;42.662;23.352;2022-12-18T16:42:15;16.60;;;10.55;;
41061;SDS011;26812;42.662;23.352;2022-12-18T16:44:44;15.65;;;10.38;;
41061;SDS011;26812;42.662;23.352;2022-12-18T16:47:11;19.05;;;9.77;;
41061;SDS011;26812;42.662;23.352;2022-12-18T16:49:36;16.67;;;10.60;;
41061;SDS011;26812;42.662;23.352;2022-12-18T16:52:03;18.48;;;8.93;;
41061;SDS011;26812;42.662;23.352;2022-12-18T16:54:29;18.67;;;10.43;;
41061;SDS011;26812;42.662;23.352;2022-12-18T16:56:54;15.00;;;10.10;;
41061;SDS011;26812;42.662;23.352;2022-12-18T16:59:20;16.90;;;8.70;;
41061;SDS011;26812;42.662;23.352;2022-12-18T17:01:46;14.43;;;9.05;;
41061;SDS011;26812;42.662;23.352;2022-12-18T17:04:14;19.00;;;10.27;;
41061;SDS011;26812;42.662;23.352;2022-12-18T17:06:41;18.30;;;11.65;;
41061;SDS011;26812;42.662;23.352;2022-12-18T17:09:12;16.90;;;10.27;;
41061;SDS011;26812;42.662;23.352;2022-12-18T17:11:39;18.60;;;10.60;;
41061;SDS011;26812;42.662;23.352;2022-12-18T17:14:06;16.85;;;10.25;;
41061;SDS011;26812;42.662;23.352;2022-12-18T17:16:35;18.70;;;10.38;;